Time;durP1;ratioP1;P1;durP2;ratioP2;P2;SDS_P1;SDS_P2;PMS_P1;PMS_P2;Temp;Humidity;BMP_temperature;BMP_pressure;BME280_temperature;BME280_humidity;BME280_pressure;Samples;Min_cycle;Max_cycle;Signal;HPM_P1;HPM_P2
2023/02/24 00:01:50;;;;;;;17.17;3.30;;;;;;;3.49;100.00;100166.28;5055010;28;20671;-78
2023/02/24 00:04:18;;;;;;;18.97;3.93;;;;;;;3.55;100.00;100161.16;5055954;28;20198;-80
2023/02/24 00:06:44;;;;;;;14.77;3.90;;;;;;;3.55;100.00;100150.84;5052510;28;20231;-79
2023/02/24 00:09:15;;;;;;;11.23;3.20;;;;;;;3.70;100.00;100134.56;5054880;28;20285;-80
2023/02/24 00:11:45;;;;;;;16.10;4.40;;;;;;;3.72;100.00;100132.84;5055254;28;20209;-80
2023/02/24 00:14:14;;;;;;;21.77;4.00;;;;;;;3.69;100.00;100150.91;5055786;28;20201;-79
2023/02/24 00:16:43;;;;;;;16.37;4.47;;;;;;;3.66;100.00;100150.88;5056226;28;20202;-80
2023/02/24 00:19:12;;;;;;;29.87;5.90;;;;;;;3.64;100.00;100161.19;5055585;28;20251;-80
2023/02/24 00:21:39;;;;;;;18.00;3.70;;;;;;;3.52;100.00;100164.56;5055236;28;20200;-79
2023/02/24 00:24:06;;;;;;;19.10;3.30;;;;;;;3.47;100.00;100158.53;5055488;28;20202;-80
2023/02/24 00:26:34;;;;;;;21.97;3.43;;;;;;;3.60;100.00;100164.63;5054153;28;20234;-80
2023/02/24 00:29:03;;;;;;;22.53;3.50;;;;;;;3.62;100.00;100164.63;5054873;28;20685;-80
2023/02/24 00:31:30;;;;;;;12.63;3.73;;;;;;;3.72;100.00;100169.84;5054885;28;20676;-79
2023/02/24 00:33:58;;;;;;;13.43;3.83;;;;;;;3.63;100.00;100185.28;5054899;28;20232;-78
2023/02/24 00:36:25;;;;;;;23.10;4.00;;;;;;;3.53;100.00;100183.53;5053015;28;20203;-80
2023/02/24 00:38:54;;;;;;;15.60;3.60;;;;;;;3.49;100.00;100174.91;5054663;28;20271;-80
2023/02/24 00:41:22;;;;;;;18.33;3.07;;;;;;;3.41;100.00;100167.94;5054930;28;20194;-80
2023/02/24 00:43:50;;;;;;;17.23;3.70;;;;;;;3.39;100.00;100170.53;5056152;28;20218;-79
2023/02/24 00:46:19;;;;;;;14.23;3.70;;;;;;;3.38;100.00;100161.06;5056609;28;20237;-79
2023/02/24 00:48:47;;;;;;;9.10;2.80;;;;;;;3.31;100.00;100165.34;5056427;28;20312;-80
2023/02/24 00:51:15;;;;;;;13.27;3.23;;;;;;;3.25;100.00;100174.72;5056542;28;20207;-80
2023/02/24 00:53:42;;;;;;;19.60;3.07;;;;;;;3.22;100.00;100179.88;5056264;28;20469;-79
2023/02/24 00:56:11;;;;;;;17.67;2.90;;;;;;;3.17;100.00;100185.00;5056399;28;20242;-79
2023/02/24 00:58:38;;;;;;;15.20;3.33;;;;;;;3.12;100.00;100182.41;5056185;28;20603;-80
2023/02/24 01:01:13;;;;;;;12.77;3.97;;;;;;;3.20;100.00;100194.50;5055724;28;20206;-79
2023/02/24 01:03:39;;;;;;;23.33;3.03;;;;;;;3.32;100.00;100204.88;5055978;28;20616;-80
2023/02/24 01:06:06;;;;;;;12.63;2.43;;;;;;;3.25;100.00;100209.16;5056389;28;20206;-79
2023/02/24 01:08:35;;;;;;;13.23;2.70;;;;;;;3.21;100.00;100209.97;5056438;28;20229;-80
2023/02/24 01:13:47;;;;;;;13.17;3.20;;;;;;;3.16;100.00;100215.09;5055767;28;20208;-80
2023/02/24 01:16:17;;;;;;;9.63;2.23;;;;;;;3.24;100.00;100206.56;5055885;28;20271;-80
2023/02/24 01:18:44;;;;;;;9.27;2.03;;;;;;;3.13;100.00;100229.66;5056569;28;20232;-80
2023/02/24 01:21:13;;;;;;;11.77;2.00;;;;;;;3.21;100.00;100224.56;5055620;28;20664;-80
2023/02/24 01:23:39;;;;;;;10.43;2.80;;;;;;;3.20;100.00;100238.34;5055983;28;20208;-79
2023/02/24 01:26:06;;;;;;;16.50;2.60;;;;;;;3.06;100.00;100236.50;5056251;28;20206;-80
2023/02/24 01:28:32;;;;;;;13.03;3.40;;;;;;;3.07;100.00;100234.78;5055276;28;20774;-80
2023/02/24 01:31:01;;;;;;;7.80;2.63;;;;;;;3.10;100.00;100240.84;5055284;28;20576;-80
2023/02/24 01:33:29;;;;;;;11.87;2.30;;;;;;;3.13;100.00;100251.19;5055657;28;20233;-80
2023/02/24 01:35:56;;;;;;;10.70;2.20;;;;;;;3.12;100.00;100254.59;5056073;28;20707;-80
2023/02/24 01:38:22;;;;;;;21.80;2.67;;;;;;;3.06;100.00;100262.28;5055543;28;20257;-79
2023/02/24 01:40:55;;;;;;;17.53;2.40;;;;;;;3.17;100.00;100259.78;5035492;28;20203;-80
2023/02/24 01:43:22;;;;;;;11.20;2.77;;;;;;;3.25;100.00;100270.16;5035318;28;20207;-80
2023/02/24 01:45:50;;;;;;;7.20;1.77;;;;;;;3.25;100.00;100276.22;5036004;28;20207;-80
2023/02/24 01:48:17;;;;;;;14.03;3.83;;;;;;;3.29;100.00;100285.69;5035566;28;20274;-80
2023/02/24 01:50:46;;;;;;;13.83;2.97;;;;;;;3.20;100.00;100274.44;5035557;28;20630;-80
2023/02/24 01:53:12;;;;;;;14.03;3.13;;;;;;;3.32;100.00;100264.22;5035452;28;20214;-80
2023/02/24 01:55:45;;;;;;;16.50;3.00;;;;;;;3.42;100.00;100275.47;5035401;28;20212;-80
2023/02/24 01:58:16;;;;;;;14.00;2.73;;;;;;;3.57;100.00;100260.09;5049517;28;20230;-80
2023/02/24 02:00:45;;;;;;;10.53;2.47;;;;;;;3.72;100.00;100267.06;5055751;28;20260;-80
2023/02/24 02:03:23;;;;;;;12.47;3.00;;;;;;;3.77;100.00;100274.00;5055713;28;20198;-80
2023/02/24 02:05:52;;;;;;;9.40;3.03;;;;;;;3.59;99.66;100294.53;5055517;28;20597;-80
2023/02/24 02:08:23;;;;;;;13.77;3.27;;;;;;;3.54;100.00;100285.88;5055195;28;20629;-79
2023/02/24 02:10:52;;;;;;;12.57;2.60;;;;;;;3.44;100.00;100263.44;5055060;28;20205;-80
2023/02/24 02:13:20;;;;;;;7.63;2.30;;;;;;;3.39;100.00;100253.09;5055293;28;20296;-80
2023/02/24 02:15:55;;;;;;;16.60;2.60;;;;;;;3.51;100.00;100239.44;5055330;28;20653;-79
2023/02/24 02:18:30;;;;;;;10.40;2.40;;;;;;;3.48;100.00;100250.56;5055049;28;20228;-80
2023/02/24 02:21:36;;;;;;;10.97;2.57;;;;;;;3.61;100.00;100246.38;5055324;28;20212;-79
2023/02/24 02:24:22;;;;;;;11.03;2.70;;;;;;;3.48;100.00;100253.16;5056612;28;20214;-80
2023/02/24 02:27:31;;;;;;;7.00;2.23;;;;;;;3.41;100.00;100229.88;5054925;28;20648;-80
2023/02/24 02:30:27;;;;;;;11.33;2.77;;;;;;;3.27;100.00;100233.25;5055079;28;20704;-79
2023/02/24 02:33:20;;;;;;;14.17;2.57;;;;;;;3.38;100.00;100220.41;5055483;28;20203;-80
2023/02/24 02:35:59;;;;;;;12.13;3.00;;;;;;;3.50;100.00;100201.56;5059643;28;20210;-80
2023/02/24 02:38:33;;;;;;;7.43;1.93;;;;;;;3.66;100.00;100189.59;5059061;28;20316;-79
2023/02/24 02:41:07;;;;;;;11.90;2.93;;;;;;;3.66;100.00;100207.66;5059308;28;20201;-80
2023/02/24 02:43:40;;;;;;;6.43;2.20;;;;;;;3.38;98.43;100241.03;5059145;28;20207;-80
2023/02/24 02:46:13;;;;;;;7.30;2.17;;;;;;;3.53;99.12;100238.56;5059568;28;20230;-80
2023/02/24 02:48:47;;;;;;;9.80;2.30;;;;;;;3.51;98.73;100237.69;5059486;28;20628;-80
2023/02/24 02:51:18;;;;;;;6.93;2.30;;;;;;;3.48;98.79;100237.66;5059257;28;20207;-80
2023/02/24 02:53:52;;;;;;;8.40;2.40;;;;;;;3.54;99.40;100216.19;5058935;28;20253;-80
2023/02/24 02:56:24;;;;;;;5.97;1.73;;;;;;;3.64;98.98;100211.97;5059496;28;20740;-80
2023/02/24 02:58:54;;;;;;;10.57;2.43;;;;;;;3.68;99.75;100196.50;5058771;28;20653;-80
2023/02/24 03:01:24;;;;;;;5.73;2.37;;;;;;;3.66;99.40;100211.09;5058798;28;20201;-81
2023/02/24 03:03:53;;;;;;;10.37;2.80;;;;;;;3.54;98.16;100218.78;5059077;28;20214;-80
2023/02/24 03:06:25;;;;;;;11.60;2.20;;;;;;;3.44;97.70;100237.66;5058855;28;20673;-80
2023/02/24 03:08:57;;;;;;;9.17;2.63;;;;;;;3.35;97.80;100234.16;5058597;28;20226;-80
2023/02/24 03:11:24;;;;;;;16.53;3.00;;;;;;;3.50;98.70;100210.16;5059292;28;20210;-79
2023/02/24 03:13:55;;;;;;;12.97;3.63;;;;;;;3.61;99.10;100192.16;5058903;28;20260;-80
2023/02/24 03:16:25;;;;;;;9.73;2.53;;;;;;;3.39;98.30;100211.81;5058897;28;20690;-80
2023/02/24 03:18:57;;;;;;;14.63;2.80;;;;;;;3.32;98.86;100203.16;5058425;28;20231;-79
2023/02/24 03:21:31;;;;;;;8.77;2.63;;;;;;;3.32;99.86;100172.22;5058236;28;20214;-79
2023/02/24 03:24:01;;;;;;;7.17;2.40;;;;;;;3.36;98.57;100173.09;5058896;28;20201;-79
2023/02/24 03:26:31;;;;;;;9.03;2.63;;;;;;;3.43;97.80;100189.47;5058774;28;20235;-79
2023/02/24 03:29:04;;;;;;;11.80;2.70;;;;;;;3.56;97.20;100194.69;5057274;28;20695;-80
2023/02/24 03:31:37;;;;;;;9.63;2.57;;;;;;;3.51;96.56;100211.03;5059432;28;20284;-80
2023/02/24 03:34:07;;;;;;;5.50;2.33;;;;;;;3.23;96.03;100228.91;5058824;28;20575;-80
2023/02/24 03:36:35;;;;;;;6.00;2.37;;;;;;;3.23;95.00;100239.22;5058009;28;20629;-80
2023/02/24 03:39:04;;;;;;;5.67;2.33;;;;;;;3.23;95.34;100240.91;5058177;28;20225;-80
2023/02/24 03:41:37;;;;;;;9.70;2.50;;;;;;;3.26;95.83;100226.34;5058247;28;20205;-79
2023/02/24 03:44:06;;;;;;;8.67;2.73;;;;;;;3.17;94.78;100242.63;5058062;28;20212;-80
2023/02/24 03:46:34;;;;;;;6.37;1.80;;;;;;;3.11;92.61;100278.69;5056934;28;20212;-80
2023/02/24 03:49:09;;;;;;;12.33;1.53;;;;;;;3.01;91.57;100314.66;5058401;28;20712;-80
2023/02/24 03:51:36;;;;;;;5.23;1.73;;;;;;;3.00;91.45;100321.53;5057892;28;20249;-80
2023/02/24 03:54:17;;;;;;;5.47;1.90;;;;;;;3.06;90.92;100325.91;5057644;28;20204;-80
2023/02/24 03:56:49;;;;;;;7.00;1.83;;;;;;;3.01;90.09;100349.03;5056885;28;20198;-80
2023/02/24 03:59:29;;;;;;;4.73;1.30;;;;;;;2.93;89.20;100363.56;5052340;28;20349;-79
2023/02/24 04:02:03;;;;;;;12.97;2.20;;;;;;;2.94;90.12;100363.59;5057487;28;20240;-79
2023/02/24 04:04:34;;;;;;;5.07;1.43;;;;;;;2.89;89.98;100365.22;5057647;28;20238;-80
2023/02/24 04:07:09;;;;;;;5.43;1.10;;;;;;;2.89;90.10;100362.66;5055502;28;20218;-79
2023/02/24 04:09:40;;;;;;;4.87;1.50;;;;;;;2.86;91.25;100348.91;5057816;28;20217;-80
2023/02/24 04:12:15;;;;;;;7.83;2.90;;;;;;;2.91;91.36;100330.03;5058527;28;20206;-80
2023/02/24 04:14:50;;;;;;;8.87;2.37;;;;;;;2.87;91.81;100325.69;5055401;28;20201;-80
2023/02/24 04:17:20;;;;;;;5.20;1.20;;;;;;;2.86;91.09;100326.56;5057740;28;20204;-80
2023/02/24 04:19:51;;;;;;;5.70;1.20;;;;;;;3.00;90.28;100338.72;5057492;28;20287;-80
2023/02/24 04:22:23;;;;;;;15.10;1.60;;;;;;;3.06;90.52;100326.75;5058575;28;20202;-79
2023/02/24 04:24:54;;;;;;;9.07;2.27;;;;;;;2.99;91.00;100322.38;5057636;28;20204;-79
2023/02/24 04:27:21;;;;;;;6.80;1.50;;;;;;;2.89;87.46;100360.09;5054711;28;20614;-80
2023/02/24 04:29:52;;;;;;;11.27;2.20;;;;;;;2.93;89.02;100379.03;5056399;28;20644;-80
2023/02/24 04:32:24;;;;;;;9.90;1.50;;;;;;;2.89;87.53;100383.28;5053335;28;20207;-79
2023/02/24 04:34:51;;;;;;;9.10;1.07;;;;;;;2.87;86.62;100400.44;5055716;28;20199;-80
2023/02/24 04:37:21;;;;;;;11.03;2.93;;;;;;;2.87;85.95;100427.94;5056148;28;20237;-79
2023/02/24 04:39:49;;;;;;;6.47;1.30;;;;;;;2.85;85.10;100438.22;5056197;28;20220;-80
2023/02/24 04:42:17;;;;;;;6.87;1.30;;;;;;;2.87;85.26;100467.47;5056164;28;20199;-79
2023/02/24 04:44:45;;;;;;;5.73;1.00;;;;;;;2.87;85.64;100448.56;5056947;28;20197;-80
2023/02/24 04:47:11;;;;;;;5.13;1.00;;;;;;;2.87;85.89;100449.44;5056152;28;20204;-79
2023/02/24 04:49:39;;;;;;;8.27;1.50;;;;;;;2.96;86.00;100428.91;5055792;28;20224;-80
2023/02/24 04:52:07;;;;;;;4.10;1.20;;;;;;;3.03;85.95;100432.44;5056060;28;20254;-80
2023/02/24 04:54:36;;;;;;;4.33;1.20;;;;;;;2.83;84.16;100457.13;5056191;28;20227;-80
2023/02/24 04:57:04;;;;;;;6.13;1.63;;;;;;;2.97;84.66;100458.13;5052756;28;20585;-80
2023/02/24 04:59:31;;;;;;;3.27;1.30;;;;;;;2.80;84.63;100467.41;5055618;28;20264;-80
2023/02/24 05:02:00;;;;;;;5.17;1.20;;;;;;;2.80;84.06;100464.81;5056021;28;20241;-79
2023/02/24 05:04:28;;;;;;;6.13;1.23;;;;;;;2.75;85.24;100464.75;5056240;28;20206;-80
2023/02/24 05:06:56;;;;;;;8.63;1.43;;;;;;;2.73;83.36;100461.28;5056095;28;20193;-79
2023/02/24 05:09:23;;;;;;;3.17;1.50;;;;;;;2.75;81.68;100487.94;5035960;28;20289;-79
2023/02/24 05:11:51;;;;;;;11.33;1.33;;;;;;;2.82;80.21;100535.31;5035167;28;20210;-80
2023/02/24 05:14:21;;;;;;;3.43;1.00;;;;;;;2.63;79.89;100560.78;5036341;28;20207;-80
2023/02/24 05:16:49;;;;;;;7.17;1.17;;;;;;;2.73;80.16;100554.06;5036379;28;20217;-79
2023/02/24 05:22:03;;;;;;;3.77;1.30;;;;;;;2.63;79.95;100559.94;5036149;28;20205;-79
2023/02/24 05:24:31;;;;;;;6.07;1.30;;;;;;;2.52;79.16;100564.94;5036317;28;20234;-79
2023/02/24 05:26:59;;;;;;;2.97;1.03;;;;;;;2.51;79.52;100588.94;5039827;28;20680;-80
2023/02/24 05:29:27;;;;;;;5.13;1.40;;;;;;;2.65;81.05;100559.09;5055362;28;20268;-80
2023/02/24 05:31:54;;;;;;;5.60;1.10;;;;;;;2.52;80.72;100552.03;5056305;28;20555;-79
2023/02/24 05:34:23;;;;;;;3.70;0.80;;;;;;;2.39;77.43;100576.72;5056131;28;20207;-80
2023/02/24 05:36:49;;;;;;;1.40;0.70;;;;;;;2.41;77.06;100608.53;5056371;28;20731;-79
2023/02/24 05:39:18;;;;;;;3.70;1.00;;;;;;;2.47;77.78;100603.47;5055429;28;20228;-80
2023/02/24 05:41:47;;;;;;;5.20;0.97;;;;;;;2.52;77.84;100595.84;5056366;28;20203;-80
2023/02/24 05:44:21;;;;;;;4.47;0.97;;;;;;;2.55;77.90;100583.84;5056366;28;20575;-82
2023/02/24 05:46:48;;;;;;;3.23;1.03;;;;;;;2.51;78.69;100576.91;5054988;28;20557;-81
2023/02/24 05:49:19;;;;;;;4.17;1.37;;;;;;;2.59;78.56;100561.59;5055138;28;20226;-80
2023/02/24 05:51:53;;;;;;;3.37;1.00;;;;;;;2.66;79.53;100545.38;5055547;28;20279;-79
2023/02/24 05:54:21;;;;;;;5.67;1.23;;;;;;;2.68;78.24;100527.38;5055695;28;20209;-80
2023/02/24 05:56:48;;;;;;;5.67;1.43;;;;;;;2.65;76.66;100553.94;5056039;28;20219;-79
2023/02/24 05:59:20;;;;;;;6.63;1.93;;;;;;;2.60;77.58;100563.34;5055196;28;20355;-81
2023/02/24 06:01:47;;;;;;;2.97;1.10;;;;;;;2.65;76.90;100576.28;5055705;28;20216;-80
2023/02/24 06:04:19;;;;;;;3.47;0.87;;;;;;;2.65;77.30;100569.41;5055388;28;20232;-80
2023/02/24 06:06:49;;;;;;;3.13;1.33;;;;;;;2.71;76.80;100578.94;5055365;28;20208;-79
2023/02/24 06:09:16;;;;;;;1.70;1.10;;;;;;;2.87;78.35;100549.09;5054510;28;20225;-80
2023/02/24 06:11:43;;;;;;;4.50;1.30;;;;;;;2.80;77.43;100540.44;5055029;28;20206;-79
2023/02/24 06:14:11;;;;;;;8.73;1.23;;;;;;;2.76;77.31;100536.94;5055125;28;20212;-81
2023/02/24 06:16:40;;;;;;;8.20;1.60;;;;;;;2.89;77.93;100529.38;5055972;28;20743;-80
2023/02/24 06:19:08;;;;;;;4.33;1.43;;;;;;;2.84;78.22;100516.44;5055255;28;20742;-80
2023/02/24 06:21:35;;;;;;;4.30;1.17;;;;;;;2.94;80.60;100471.00;5054605;28;20203;-79
2023/02/24 06:24:02;;;;;;;2.67;1.27;;;;;;;3.00;80.91;100427.25;5053921;28;20270;-80
2023/02/24 06:26:28;;;;;;;5.33;1.70;;;;;;;3.11;81.31;100401.56;5054563;28;20210;-80
2023/02/24 06:28:55;;;;;;;4.33;1.67;;;;;;;2.95;82.00;100379.91;5052962;28;20218;-79
2023/02/24 06:31:22;;;;;;;3.63;1.10;;;;;;;2.82;81.70;100360.03;5055705;28;20264;-78
2023/02/24 06:33:52;;;;;;;5.13;1.80;;;;;;;2.98;82.59;100331.81;5055625;28;20209;-78
2023/02/24 06:36:18;;;;;;;7.80;1.17;;;;;;;2.91;81.76;100335.19;5055709;28;20245;-78
2023/02/24 06:38:45;;;;;;;4.43;1.10;;;;;;;3.05;82.55;100313.84;5054875;28;20269;-79
2023/02/24 06:41:12;;;;;;;3.60;1.03;;;;;;;3.05;81.73;100319.84;5055167;28;20206;-78
2023/02/24 06:43:39;;;;;;;3.77;1.27;;;;;;;3.22;81.72;100301.97;5055019;28;20238;-79
2023/02/24 06:46:06;;;;;;;7.53;1.33;;;;;;;2.82;79.52;100344.56;5055676;28;20202;-80
2023/02/24 06:48:33;;;;;;;3.83;0.87;;;;;;;2.90;80.92;100337.75;5054660;28;20232;-80
2023/02/24 06:51:05;;;;;;;3.50;1.60;;;;;;;3.07;82.21;100299.25;5055106;28;20222;-78
2023/02/24 06:53:33;;;;;;;4.93;0.90;;;;;;;3.16;81.25;100291.59;5054809;28;20210;-78
2023/02/24 06:56:05;;;;;;;6.33;0.80;;;;;;;3.15;79.02;100336.28;5055065;28;20239;-81
2023/02/24 06:58:32;;;;;;;3.37;1.10;;;;;;;3.06;78.26;100356.84;5055308;28;20313;-80
2023/02/24 07:01:01;;;;;;;4.87;0.80;;;;;;;3.20;78.77;100373.31;5053916;28;20581;-81
2023/02/24 07:03:38;;;;;;;3.53;0.80;;;;;;;3.26;78.16;100369.94;5054796;28;20214;-80
2023/02/24 07:06:20;;;;;;;8.80;1.13;;;;;;;3.09;77.19;100405.84;5054832;28;20270;-79
2023/02/24 07:08:47;;;;;;;4.03;0.90;;;;;;;3.09;77.84;100404.16;5055191;28;20227;-79
2023/02/24 07:11:16;;;;;;;2.57;1.00;;;;;;;2.89;77.14;100416.78;5054298;28;20205;-80
2023/02/24 07:13:43;;;;;;;3.43;1.07;;;;;;;3.02;77.37;100414.38;5054337;28;20214;-80
2023/02/24 07:16:10;;;;;;;2.17;0.80;;;;;;;3.11;77.49;100411.88;5054699;28;20203;-81
2023/02/24 07:18:40;;;;;;;4.00;0.63;;;;;;;3.13;77.32;100411.09;5054871;28;20265;-80
2023/02/24 07:21:10;;;;;;;7.17;1.10;;;;;;;3.15;77.05;100414.53;5058387;28;20210;-80
2023/02/24 07:23:37;;;;;;;4.63;1.00;;;;;;;3.09;76.84;100423.91;5058171;28;20666;-81
2023/02/24 07:26:08;;;;;;;1.50;0.70;;;;;;;3.21;77.78;100398.28;5058348;28;20211;-80
2023/02/24 07:28:35;;;;;;;3.63;0.90;;;;;;;3.33;77.74;100395.81;5059417;28;20234;-81
2023/02/24 07:31:07;;;;;;;4.93;1.20;;;;;;;3.28;77.15;100391.44;5058781;28;20238;-81
2023/02/24 07:33:35;;;;;;;3.83;0.80;;;;;;;3.21;76.73;100400.84;5057683;28;20214;-80
2023/02/24 07:36:07;;;;;;;4.37;0.97;;;;;;;3.37;76.81;100401.88;5058199;28;20202;-80
2023/02/24 07:38:35;;;;;;;3.27;0.83;;;;;;;3.24;75.66;100406.03;5058284;28;20239;-80
2023/02/24 07:41:02;;;;;;;4.27;0.83;;;;;;;3.37;76.66;100407.03;5058317;28;20734;-79
2023/02/24 07:43:29;;;;;;;3.80;0.70;;;;;;;3.34;75.62;100397.53;5057688;28;20203;-80
2023/02/24 07:45:56;;;;;;;4.05;1.30;;;;;;;3.43;76.31;100396.75;5056162;28;20464;-80
2023/02/24 07:48:23;;;;;;;4.43;0.77;;;;;;;3.38;76.03;100406.16;5057995;28;20234;-80
2023/02/24 07:50:51;;;;;;;3.27;0.60;;;;;;;3.21;75.56;100400.84;5058339;28;20223;-80
2023/02/24 07:53:18;;;;;;;4.97;1.17;;;;;;;3.13;75.84;100403.34;5057477;28;20213;-79
2023/02/24 07:55:46;;;;;;;2.97;0.90;;;;;;;3.06;75.98;100383.47;5057777;28;20259;-80
2023/02/24 07:58:12;;;;;;;3.70;0.80;;;;;;;3.12;76.38;100373.22;5057784;28;20202;-80
2023/02/24 08:00:58;;;;;;;3.03;0.80;;;;;;;2.94;76.36;100373.91;5057268;28;20226;-80
2023/02/24 08:03:26;;;;;;;5.03;1.03;;;;;;;3.05;75.86;100353.38;5057892;28;20206;-80
2023/02/24 08:05:57;;;;;;;5.97;0.90;;;;;;;3.20;76.72;100350.09;5057638;28;20212;-78
2023/02/24 08:08:24;;;;;;;3.70;0.87;;;;;;;3.29;76.87;100339.00;5056108;28;20221;-81
2023/02/24 08:10:59;;;;;;;2.70;1.00;;;;;;;3.29;77.28;100328.66;5056569;28;20198;-80
2023/02/24 08:13:36;;;;;;;4.50;1.17;;;;;;;3.35;77.36;100311.56;5054495;28;20580;-80
2023/02/24 08:16:05;;;;;;;7.43;2.77;;;;;;;3.28;76.24;100312.34;5055682;28;20213;-81
2023/02/24 08:18:36;;;;;;;2.93;0.80;;;;;;;3.37;76.91;100306.41;5056416;28;20234;-80
2023/02/24 08:21:03;;;;;;;5.83;1.23;;;;;;;3.20;74.79;100326.03;5057187;28;20227;-80
2023/02/24 08:23:34;;;;;;;3.27;0.77;;;;;;;3.16;75.89;100341.47;5056206;28;20215;-81
2023/02/24 08:26:11;;;;;;;2.33;0.70;;;;;;;3.11;75.95;100299.31;5057283;28;20300;-81
2023/02/24 08:28:38;;;;;;;5.67;1.53;;;;;;;3.29;77.05;100293.44;5056259;28;20736;-81
2023/02/24 08:31:05;;;;;;;2.67;0.90;;;;;;;3.08;75.92;100288.09;5056295;28;20673;-80
2023/02/24 08:33:31;;;;;;;3.03;0.80;;;;;;;3.13;76.57;100284.72;5056039;28;20545;-82
2023/02/24 08:36:00;;;;;;;4.10;0.80;;;;;;;3.03;76.00;100290.59;5056741;28;20193;-80
2023/02/24 08:38:38;;;;;;;4.80;0.80;;;;;;;3.15;76.84;100269.22;5055898;28;20241;-79
2023/02/24 08:41:05;;;;;;;3.80;0.97;;;;;;;3.14;76.72;100278.69;5052724;28;20273;-78
2023/02/24 08:43:39;;;;;;;9.90;1.27;;;;;;;3.02;75.46;100273.44;5053220;28;20203;-80
2023/02/24 08:46:17;;;;;;;3.07;0.67;;;;;;;3.15;77.07;100267.53;5055258;28;20212;-80
2023/02/24 08:48:46;;;;;;;2.07;0.87;;;;;;;3.15;76.58;100243.44;5052721;28;20258;-80
2023/02/24 08:51:16;;;;;;;5.30;1.50;;;;;;;3.18;75.21;100248.63;5054059;28;20749;-79
2023/02/24 08:53:45;;;;;;;10.33;1.27;;;;;;;3.23;76.52;100261.56;5036402;28;20235;-79
2023/02/24 08:56:22;;;;;;;9.57;1.10;;;;;;;3.18;76.66;100241.75;5038799;28;20209;-80
2023/02/24 08:58:55;;;;;;;8.03;2.07;;;;;;;3.10;76.89;100224.50;5042382;28;20719;-80
2023/02/24 09:01:25;;;;;;;3.78;1.20;;;;;;;2.98;76.86;100217.53;5037811;28;20546;-79
2023/02/24 09:03:54;;;;;;;8.13;1.10;;;;;;;3.10;77.93;100194.41;5036032;28;20672;-80
2023/02/24 09:06:24;;;;;;;6.10;1.57;;;;;;;3.07;77.11;100173.78;5039283;28;20211;-81
2023/02/24 09:09:16;;;;;;;9.77;1.00;;;;;;;3.16;77.88;100180.72;5054097;28;20236;-80
2023/02/24 09:11:42;;;;;;;8.80;1.73;;;;;;;3.14;77.89;100161.78;5041873;28;20306;-80
2023/02/24 09:14:15;;;;;;;2.53;1.00;;;;;;;2.98;77.19;100164.25;5047315;28;20268;-81
2023/02/24 09:17:00;;;;;;;3.93;1.10;;;;;;;3.00;77.61;100174.56;5047976;28;20201;-79
2023/02/24 09:19:47;;;;;;;5.83;1.53;;;;;;;2.88;79.09;100146.13;5036296;28;20229;-80
2023/02/24 09:22:14;;;;;;;3.43;1.03;;;;;;;2.80;79.88;100097.09;5046366;28;20205;-80
2023/02/24 09:24:40;;;;;;;5.53;1.00;;;;;;;2.70;81.80;100047.19;5040971;28;20220;-80
2023/02/24 09:27:07;;;;;;;3.57;1.27;;;;;;;2.62;83.09;99997.34;5053450;28;20287;-79
2023/02/24 09:29:48;;;;;;;4.90;3.17;;;;;;;2.69;84.45;99954.41;5037280;28;20669;-79
2023/02/24 09:32:15;;;;;;;4.40;1.07;;;;;;;2.54;85.70;99903.69;5050605;28;20214;-81
2023/02/24 09:34:43;;;;;;;4.30;1.20;;;;;;;2.63;86.10;99853.91;5052934;28;20198;-79
2023/02/24 09:37:23;;;;;;;4.07;1.00;;;;;;;2.65;86.52;99831.59;5051028;28;20208;-80
2023/02/24 09:42:45;;;;;;;4.00;1.33;;;;;;;2.81;85.99;99807.56;5052407;28;20767;-79
2023/02/24 09:45:31;;;;;;;3.00;1.23;;;;;;;2.82;86.18;99800.72;5053181;28;20319;-78
2023/02/24 09:48:09;;;;;;;2.07;1.10;;;;;;;2.91;86.99;99782.66;5054696;28;20245;-81
2023/02/24 09:50:46;;;;;;;4.83;1.63;;;;;;;2.82;87.19;99770.66;5055295;28;20245;-78
2023/02/24 09:53:17;;;;;;;4.33;1.50;;;;;;;2.67;87.85;99755.16;5049134;28;20203;-81
2023/02/24 09:55:59;;;;;;;4.07;1.40;;;;;;;2.75;88.40;99730.25;5049976;28;20203;-80
2023/02/24 09:58:37;;;;;;;4.17;1.60;;;;;;;2.82;89.25;99703.63;5050968;28;20228;-81
2023/02/24 10:01:29;;;;;;;3.73;1.57;;;;;;;2.83;89.09;99701.91;5049103;28;20222;-81
2023/02/24 10:04:04;;;;;;;2.20;2.00;;;;;;;2.67;89.35;99703.63;5051841;28;20315;-80
2023/02/24 10:06:35;;;;;;;5.13;1.83;;;;;;;2.83;89.83;99677.00;5052881;28;20206;-81
2023/02/24 10:09:11;;;;;;;4.73;1.60;;;;;;;2.80;89.81;99668.41;5050768;28;20704;-81
2023/02/24 10:11:39;;;;;;;4.40;1.53;;;;;;;2.93;90.11;99650.38;5052501;28;20668;-80
2023/02/24 10:14:18;;;;;;;2.20;1.50;;;;;;;3.09;90.25;99658.06;5052705;28;20203;-80
2023/02/24 10:17:21;;;;;;;4.67;1.60;;;;;;;2.95;89.48;99660.66;5050273;28;20764;-78
2023/02/24 10:19:33;;;;;;;4.10;1.30;;;;;;;2.94;89.74;99652.06;5052001;28;20250;-80
2023/02/24 10:22:06;;;;;;;5.50;1.70;;;;;;;2.99;89.75;99654.63;5052916;28;20660;-80
2023/02/24 10:24:40;;;;;;;2.83;1.40;;;;;;;2.86;89.79;99655.53;5054302;28;20267;-82
2023/02/24 10:27:13;;;;;;;9.80;1.90;;;;;;;3.03;90.67;99630.56;5052700;28;20254;-81
2023/02/24 10:29:54;;;;;;;3.27;1.67;;;;;;;2.68;91.20;99621.16;5054631;28;20217;-80
2023/02/24 10:32:32;;;;;;;3.07;1.70;;;;;;;2.80;92.83;99575.66;5053881;28;20225;-81
2023/02/24 10:34:59;;;;;;;2.97;1.80;;;;;;;3.01;93.37;99551.53;5053772;28;20325;-80
2023/02/24 10:37:27;;;;;;;4.37;1.90;;;;;;;3.01;93.11;99549.81;5054560;28;20200;-80
2023/02/24 10:39:57;;;;;;;3.13;1.77;;;;;;;3.14;93.21;99538.59;5054251;28;20286;-81
2023/02/24 10:42:25;;;;;;;5.77;2.10;;;;;;;2.77;94.66;99527.53;5052738;28;20210;-81
2023/02/24 10:45:10;;;;;;;4.03;2.10;;;;;;;2.87;95.45;99498.28;5054528;28;20632;-81
2023/02/24 10:47:43;;;;;;;4.70;2.03;;;;;;;2.87;96.71;99459.63;5053633;28;20222;-80
2023/02/24 10:50:22;;;;;;;2.70;1.97;;;;;;;3.06;95.94;99446.69;5054609;28;20588;-81
2023/02/24 10:53:09;;;;;;;5.67;2.17;;;;;;;2.96;96.32;99454.44;5052618;28;20680;-80
2023/02/24 10:55:52;;;;;;;4.37;1.97;;;;;;;3.10;96.67;99427.75;5056138;28;20208;-80
2023/02/24 10:58:36;;;;;;;5.80;2.27;;;;;;;2.85;97.07;99435.59;5058095;28;20805;-80
2023/02/24 11:01:17;;;;;;;3.77;2.43;;;;;;;2.84;97.10;99415.84;5056097;28;20237;-79
2023/02/24 11:04:00;;;;;;;7.87;1.80;;;;;;;2.77;97.20;99404.72;5056141;28;20202;-81
2023/02/24 11:06:54;;;;;;;3.83;1.73;;;;;;;2.92;97.87;99390.88;5056931;28;20228;-81
2023/02/24 11:09:34;;;;;;;3.27;2.37;;;;;;;2.78;97.90;99387.53;5058159;28;20226;-80
2023/02/24 11:17:46;;;;;;;4.47;1.70;;;;;;;2.93;99.70;99340.19;5057727;28;20214;-79
2023/02/24 11:20:23;;;;;;;5.77;2.23;;;;;;;2.97;98.93;99336.72;5058308;28;20229;-81
2023/02/24 11:22:54;;;;;;;4.17;1.73;;;;;;;3.16;99.35;99309.97;5058101;28;20727;-81
2023/02/24 11:25:23;;;;;;;1.77;1.67;;;;;;;3.10;98.58;99335.78;5058452;28;20202;-80
2023/02/24 11:27:51;;;;;;;4.20;2.13;;;;;;;3.07;98.04;99337.53;5058306;28;20202;-81
2023/02/24 11:30:26;;;;;;;4.30;2.53;;;;;;;3.02;98.39;99318.69;5057986;28;20210;-81
2023/02/24 11:33:21;;;;;;;3.30;2.10;;;;;;;2.86;99.53;99320.50;5057807;28;20206;-81
2023/02/24 11:36:01;;;;;;;2.93;2.03;;;;;;;2.88;99.72;99291.25;5051884;28;20602;-79
2023/02/24 11:38:38;;;;;;;4.43;2.00;;;;;;;2.83;100.00;99287.84;5056555;28;20653;-80
2023/02/24 11:41:09;;;;;;;2.87;2.30;;;;;;;2.98;100.00;99276.59;5056029;28;20270;-82
2023/02/24 11:43:43;;;;;;;2.60;2.23;;;;;;;2.81;99.73;99271.53;5057298;28;20240;-80
2023/02/24 11:46:15;;;;;;;2.87;2.17;;;;;;;2.84;99.75;99262.94;5056884;28;20251;-81
2023/02/24 11:48:46;;;;;;;5.00;2.90;;;;;;;2.89;100.00;99243.97;5055273;28;20944;-81
2023/02/24 11:51:18;;;;;;;4.53;2.77;;;;;;;2.96;100.00;99227.63;5057772;28;20196;-79
2023/02/24 11:53:49;;;;;;;2.70;2.47;;;;;;;2.84;100.00;99227.72;5055487;28;20194;-81
2023/02/24 11:56:21;;;;;;;4.77;3.03;;;;;;;2.98;100.00;99225.03;5057327;28;20207;-80
2023/02/24 11:58:53;;;;;;;3.67;2.77;;;;;;;2.80;100.00;99222.59;5055830;28;20252;-80
2023/02/24 12:01:25;;;;;;;4.27;3.20;;;;;;;2.92;100.00;99199.31;5057128;28;20259;-80
2023/02/24 12:03:59;;;;;;;4.03;3.50;;;;;;;2.93;100.00;99201.00;5057215;28;20202;-81
2023/02/24 12:06:29;;;;;;;4.30;3.90;;;;;;;3.05;100.00;99195.75;5053597;28;20202;-80